Time;durP1;ratioP1;P1;durP2;ratioP2;P2;SDS_P1;SDS_P2;PMS_P1;PMS_P2;Temp;Humidity;BMP_temperature;BMP_pressure;BME280_temperature;BME280_humidity;BME280_pressure;Samples;Min_cycle;Max_cycle;Signal;HPM_P1;HPM_P2
2022/06/03 00:01:35;;;;;;;;;;;;;;;16.84;nan;99446.34;5033473;28;19972;-84
2022/06/03 00:04:18;;;;;;;;;;;;;;;16.83;nan;99451.81;5019485;28;20271;-85
2022/06/03 00:06:54;;;;;;;;;;;;;;;16.72;nan;99453.59;5025616;28;19979;-85
2022/06/03 00:09:38;;;;;;;;;;;;;;;16.63;nan;99466.84;5026997;28;20091;-84
2022/06/03 00:12:17;;;;;;;;;;;;;;;16.51;nan;99464.31;5025126;28;20516;-84
2022/06/03 00:14:58;;;;;;;;;;;;;;;16.45;nan;99462.25;5020091;28;20063;-85
2022/06/03 00:17:23;;;;;;;;;;;;;;;16.43;nan;99463.34;5000494;28;19968;-85
2022/06/03 00:20:07;;;;;;;;;;;;;;;16.41;nan;99455.53;5014184;28;19986;-85
2022/06/03 00:22:39;;;;;;;;;;;;;;;16.43;nan;99463.34;5009483;28;20402;-85
2022/06/03 00:25:04;;;;;;;;;;;;;;;16.45;nan;99454.28;5013149;28;19991;-85
2022/06/03 00:27:35;;;;;;;;;;;;;;;16.46;nan;99453.28;4999049;28;20540;-84
2022/06/03 00:30:04;;;;;;;;;;;;;;;16.44;nan;99452.59;5018002;28;19978;-85
2022/06/03 00:32:38;;;;;;;;;;;;;;;16.38;nan;99446.03;5016015;28;20520;-84
2022/06/03 00:35:20;;;;;;;;;;;;;;;16.34;nan;99454.44;4955161;28;20034;-85
2022/06/03 00:37:55;;;;;;;;;;;;;;;16.33;nan;99463.34;4985631;28;19976;-85
2022/06/03 00:40:32;;;;;;;;;;;;;;;16.35;nan;99469.34;4982701;28;20027;-84
2022/06/03 00:42:58;;;;;;;;;;;;;;;16.37;nan;99462.94;4974378;28;19969;-84
2022/06/03 00:45:29;;;;;;;;;;;;;;;16.34;nan;99457.91;4974790;28;20000;-85
2022/06/03 00:48:07;;;;;;;;;;;;;;;16.31;nan;99462.63;4978980;28;20027;-85
2022/06/03 00:50:49;;;;;;;;;;;;;;;16.29;nan;99460.13;4991400;28;19983;-84
2022/06/03 00:53:34;;;;;;;;;;;;;;;16.26;nan;99463.06;4974654;28;19977;-85
2022/06/03 00:56:18;;;;;;;;;;;;;;;16.25;nan;99469.31;4986996;28;19972;-85
2022/06/03 00:58:46;;;;;;;;;;;;;;;16.24;nan;99467.66;4975635;28;19980;-85
2022/06/03 01:01:14;;;;;;;;;;;;;;;16.20;nan;99473.34;4978880;28;19977;-84
2022/06/03 01:04:03;;;;;;;;;;;;;;;16.14;nan;99474.75;4978596;28;19976;-85
2022/06/03 01:06:41;;;;;;;;;;;;;;;16.09;nan;99466.34;4981584;28;20722;-85
2022/06/03 01:09:07;;;;;;;;;;;;;;;16.06;nan;99467.47;4979041;28;20047;-85
2022/06/03 01:11:50;;;;;;;;;;;;;;;16.05;nan;99464.97;4975203;28;20014;-83
2022/06/03 01:14:25;;;;;;;;;;;;;;;16.04;nan;99465.94;4979839;28;20147;-83
2022/06/03 01:16:53;;;;;;;;;;;;;;;16.02;nan;99465.25;4981681;28;20350;-83
2022/06/03 01:19:25;;;;;;;;;;;;;;;16.04;nan;99465.94;4977891;28;20012;-83
2022/06/03 01:21:59;;;;;;;;;;;;;;;16.06;nan;99471.94;4992881;28;20793;-83
2022/06/03 01:24:38;;;;;;;;;;;;;;;16.07;nan;99478.94;4977211;28;21042;-84
2022/06/03 01:27:19;;;;;;;;;;;;;;;16.07;nan;99473.63;4987334;28;19992;-83
2022/06/03 01:29:53;;;;;;;;;;;;;;;16.06;nan;99478.06;4981733;28;19979;-84
2022/06/03 01:32:19;;;;;;;;;;;;;;;16.05;nan;99463.16;4989493;28;20059;-84
2022/06/03 01:34:56;;;;;;;;;;;;;;;16.05;nan;99465.81;4974921;28;20405;-84
2022/06/03 01:37:21;;;;;;;;;;;;;;;15.99;nan;99460.22;4974044;28;20086;-84
2022/06/03 01:40:05;;;;;;;;;;;;;;;15.94;nan;99452.69;4980951;28;20064;-84
2022/06/03 01:42:42;;;;;;;;;;;;;;;15.89;nan;99453.06;4989720;28;19980;-83
2022/06/03 01:45:24;;;;;;;;;;;;;;;15.85;nan;99459.63;4979090;28;19992;-84
2022/06/03 01:48:08;;;;;;;;;;;;;;;15.84;nan;99457.09;4977618;28;20476;-84
2022/06/03 01:50:49;;;;;;;;;;;;;;;15.83;nan;99452.78;4980022;28;20019;-84
2022/06/03 01:53:29;;;;;;;;;;;;;;;15.79;nan;99459.31;4985231;28;19969;-84
2022/06/03 01:56:14;;;;;;;;;;;;;;;15.72;nan;99442.31;4980153;28;20353;-84
2022/06/03 01:58:46;;;;;;;;;;;;;;;15.57;nan;99445.28;4984900;28;20178;-84
2022/06/03 02:01:11;;;;;;;;;;;;;;;15.46;nan;99442.72;4985122;28;20051;-83
2022/06/03 02:03:45;;;;;;;;;;;;;;;15.38;nan;99435.44;4979201;28;20055;-84
2022/06/03 02:06:43;;;;;;;;;;;;;;;15.32;nan;99435.13;4989677;28;20039;-84
2022/06/03 02:09:11;;;;;;;;;;;;;;;15.34;nan;99443.75;4982890;28;19935;-84
2022/06/03 02:11:52;;;;;;;;;;;;;;;15.36;nan;99447.97;4987681;28;19993;-84
2022/06/03 02:14:20;;;;;;;;;;;;;;;15.33;nan;99447.41;4992775;28;20519;-85
2022/06/03 02:17:04;;;;;;;;;;;;;;;15.29;nan;99446.00;4988332;28;20385;-84
2022/06/03 02:19:53;;;;;;;;;;;;;;;15.30;nan;99452.94;4988680;28;19935;-85
2022/06/03 02:22:18;;;;;;;;;;;;;;;15.35;nan;99456.88;4996095;28;19943;-84
2022/06/03 02:25:02;;;;;;;;;;;;;;;15.39;nan;99446.84;4992142;28;20740;-85
2022/06/03 02:27:39;;;;;;;;;;;;;;;15.42;nan;99449.25;4988660;28;19961;-84
2022/06/03 02:32:48;;;;;;;;;;;;;;;15.51;nan;99450.28;4994920;28;19939;-85
2022/06/03 02:35:35;;;;;;;;;;;;;;;15.54;nan;99460.59;4988286;28;19948;-83
2022/06/03 02:38:01;;;;;;;;;;;;;;;15.52;nan;99452.75;4990451;28;19997;-83
2022/06/03 02:40:44;;;;;;;;;;;;;;;15.49;nan;99450.38;4991602;28;19943;-84
2022/06/03 02:43:35;;;;;;;;;;;;;;;15.48;nan;99454.03;4998904;28;20052;-84
2022/06/03 02:46:09;;;;;;;;;;;;;;;15.50;nan;99452.09;4980374;28;20421;-84
2022/06/03 02:48:52;;;;;;;;;;;;;;;15.46;nan;99450.66;4989589;28;20405;-84
2022/06/03 02:51:18;;;;;;;;;;;;;;;15.44;nan;99442.84;4995657;28;20021;-85
2022/06/03 02:53:55;;;;;;;;;;;;;;;15.44;nan;99444.66;4996233;28;20089;-84
2022/06/03 02:56:49;;;;;;;;;;;;;;;15.37;nan;99433.78;4981441;28;19935;-83
2022/06/03 02:59:33;;;;;;;;;;;;;;;15.32;nan;99419.25;4921965;28;20473;-84
2022/06/03 03:02:12;;;;;;;;;;;;;;;15.24;nan;99418.09;4982073;28;19982;-84
2022/06/03 03:04:47;;;;;;;;;;;;;;;15.23;nan;99420.91;4982581;28;19959;-84
2022/06/03 03:07:24;;;;;;;;;;;;;;;15.23;nan;99426.19;4987677;28;19943;-84
2022/06/03 03:10:19;;;;;;;;;;;;;;;15.22;nan;99412.09;4984265;28;19973;-84
2022/06/03 03:12:47;;;;;;;;;;;;;;;15.25;nan;99409.19;4938088;28;19963;-84
2022/06/03 03:15:48;;;;;;;;;;;;;;;15.24;nan;99407.53;4981408;28;19936;-84
2022/06/03 03:18:31;;;;;;;;;;;;;;;15.16;nan;99395.94;4911430;29;19943;-84
2022/06/03 03:20:56;;;;;;;;;;;;;;;15.08;nan;99398.41;4973942;28;19990;-84
2022/06/03 03:23:40;;;;;;;;;;;;;;;15.03;nan;99410.19;4974248;28;19972;-84
2022/06/03 03:26:09;;;;;;;;;;;;;;;14.97;nan;99415.19;5020624;28;19959;-84
2022/06/03 03:28:53;;;;;;;;;;;;;;;14.94;nan;99413.63;5022419;28;20048;-84
2022/06/03 03:31:36;;;;;;;;;;;;;;;14.89;nan;99415.00;5026355;28;19931;-84
2022/06/03 03:34:02;;;;;;;;;;;;;;;14.87;nan;99422.22;5009301;28;19935;-84
2022/06/03 03:36:41;;;;;;;;;;;;;;;14.88;nan;99423.88;5030009;28;19937;-83
2022/06/03 03:39:28;;;;;;;;;;;;;;;14.87;nan;99428.34;5027981;28;20077;-84
2022/06/03 03:42:11;;;;;;;;;;;;;;;14.90;nan;99436.00;5026901;28;19941;-83
2022/06/03 03:44:46;;;;;;;;;;;;;;;14.90;nan;99430.72;5027706;28;19996;-83
2022/06/03 03:47:32;;;;;;;;;;;;;;;14.87;nan;99430.16;5024021;28;20006;-85
2022/06/03 03:50:10;;;;;;;;;;;;;;;14.85;nan;99434.72;5024578;28;20033;-84
2022/06/03 03:52:35;;;;;;;;;;;;;;;14.82;nan;99436.69;5027393;28;20025;-84
2022/06/03 03:55:09;;;;;;;;;;;;;;;14.80;nan;99438.59;5023865;28;20509;-83
2022/06/03 03:57:37;;;;;;;;;;;;;;;14.80;nan;99435.97;5021898;28;20192;-84
2022/06/03 04:00:11;;;;;;;;;;;;;;;14.83;nan;99440.16;5032281;28;20487;-84
2022/06/03 04:02:58;;;;;;;;;;;;;;;14.87;nan;99436.25;5018247;28;20393;-84
2022/06/03 04:05:42;;;;;;;;;;;;;;;14.92;nan;99438.53;5028687;28;20797;-84
2022/06/03 04:08:07;;;;;;;;;;;;;;;14.97;nan;99439.00;5024039;28;20010;-83
2022/06/03 04:10:48;;;;;;;;;;;;;;;14.97;nan;99437.16;5026277;28;19976;-84
2022/06/03 04:13:22;;;;;;;;;;;;;;;15.02;nan;99429.69;5021378;28;20680;-84
2022/06/03 04:16:01;;;;;;;;;;;;;;;15.07;nan;99420.50;5023684;28;20106;-84
2022/06/03 04:18:39;;;;;;;;;;;;;;;15.01;nan;99416.56;5026168;28;20085;-85
2022/06/03 04:21:14;;;;;;;;;;;;;;;14.88;nan;99422.09;5020389;28;20030;-84
2022/06/03 04:23:48;;;;;;;;;;;;;;;14.77;nan;99438.00;5018419;28;19994;-84
2022/06/03 04:26:23;;;;;;;;;;;;;;;14.75;nan;99447.88;5030329;28;20051;-84
2022/06/03 04:28:56;;;;;;;;;;;;;;;14.87;nan;99461.88;5028933;28;19939;-84
2022/06/03 04:31:34;;;;;;;;;;;;;;;15.00;nan;99460.72;5011845;28;20671;-84
2022/06/03 04:34:14;;;;;;;;;;;;;;;15.14;nan;99454.25;5026569;28;20539;-84
2022/06/03 04:36:58;;;;;;;;;;;;;;;15.27;nan;99459.34;5040071;28;19976;-84
2022/06/03 04:39:42;;;;;;;;;;;;;;;15.39;nan;99466.25;5034718;28;20064;-84
2022/06/03 04:42:10;;;;;;;;;;;;;;;15.48;nan;99456.66;5039224;28;20011;-84
2022/06/03 04:44:36;;;;;;;;;;;;;;;15.53;nan;99454.47;5019286;28;20034;-86
2022/06/03 04:47:20;;;;;;;;;;;;;;;15.60;nan;99468.81;5025988;28;19976;-87
2022/06/03 04:49:54;;;;;;;;;;;;;;;15.90;nan;99483.03;5011277;28;19972;-87
2022/06/03 04:52:38;;;;;;;;;;;;;;;16.30;nan;99472.41;4999957;28;20524;-86
2022/06/03 04:55:19;;;;;;;;;;;;;;;16.80;nan;99480.28;5006348;28;20518;-85
2022/06/03 04:57:44;;;;;;;;;;;;;;;17.32;nan;99487.88;5013203;28;20103;-87
2022/06/03 05:00:18;;;;;;;;;;;;;;;17.68;nan;99488.03;5010205;28;20500;-86
2022/06/03 05:03:02;;;;;;;;;;;;;;;18.11;nan;99473.28;4995669;28;19995;-86
2022/06/03 05:05:43;;;;;;;;;;;;;;;18.59;nan;99464.16;5005856;28;20090;-87
2022/06/03 05:08:18;;;;;;;;;;;;;;;19.11;nan;99466.09;5011332;28;20564;-87
2022/06/03 05:11:02;;;;;;;;;;;;;;;19.51;nan;99470.81;5013053;28;19959;-87
2022/06/03 05:13:45;;;;;;;;;;;;;;;19.92;nan;99460.38;5004326;28;19942;-87
2022/06/03 05:16:10;;;;;;;;;;;;;;;20.15;nan;99457.13;5009060;28;19955;-86
2022/06/03 05:18:48;;;;;;;;;;;;;;;20.18;nan;99443.47;5008199;28;20140;-86
2022/06/03 05:21:22;;;;;;;;;;;;;;;20.11;nan;99448.59;5008905;28;19938;-87
2022/06/03 05:23:48;;;;;;;;;;;;;;;20.33;nan;99453.34;5003723;28;20443;-86
2022/06/03 05:26:21;;;;;;;;;;;;;;;20.56;nan;99455.38;5005770;28;20001;-86
2022/06/03 05:28:52;;;;;;;;;;;;;;;20.62;nan;99441.38;5001893;28;19932;-87
2022/06/03 05:31:52;;;;;;;;;;;;;;;21.02;nan;99430.84;5002948;28;19927;-87
2022/06/03 05:34:37;;;;;;;;;;;;;;;21.52;nan;99427.06;5005576;28;19942;-87
2022/06/03 05:37:20;;;;;;;;;;;;;;;21.12;nan;99435.00;5002729;28;19989;-86
2022/06/03 05:40:04;;;;;;;;;;;;;;;20.66;nan;99436.56;4998100;28;19958;-86
2022/06/03 05:42:37;;;;;;;;;;;;;;;19.96;nan;99443.06;5021861;28;19971;-86
2022/06/03 05:45:32;;;;;;;;;;;;;;;19.92;nan;99449.72;5018383;28;19951;-86
2022/06/03 05:48:01;;;;;;;;;;;;;;;20.31;nan;99447.31;5025627;28;19941;-87
2022/06/03 05:50:26;;;;;;;;;;;;;;;20.68;nan;99430.03;5022303;28;19948;-87
2022/06/03 05:53:00;;;;;;;;;;;;;;;20.91;nan;99440.88;5026930;28;19939;-87
2022/06/03 05:55:30;;;;;;;;;;;;;;;20.76;nan;99450.53;5015936;28;19949;-87
2022/06/03 05:58:01;;;;;;;;;;;;;;;20.65;nan;99445.53;5014873;28;19927;-87
2022/06/03 06:00:48;;;;;;;;;;;;;;;20.58;nan;99439.19;5014416;28;19931;-86
2022/06/03 06:03:22;;;;;;;;;;;;;;;20.37;nan;99440.50;5017114;28;19993;-87
2022/06/03 06:05:51;;;;;;;;;;;;;;;20.13;nan;99443.13;5018376;28;19986;-87
2022/06/03 06:08:22;;;;;;;;;;;;;;;19.92;nan;99433.72;5023851;28;20361;-87
2022/06/03 06:11:04;;;;;;;;;;;;;;;19.74;nan;99430.31;5023007;28;19984;-87
2022/06/03 06:13:44;;;;;;;;;;;;;;;19.30;nan;99428.59;5020865;28;19981;-87
2022/06/03 06:16:29;;;;;;;;;;;;;;;19.19;nan;99432.34;5020336;28;19942;-87
2022/06/03 06:19:05;;;;;;;;;;;;;;;19.33;nan;99436.25;5020582;28;19931;-86
2022/06/03 06:21:40;;;;;;;;;;;;;;;19.61;nan;99438.75;5021771;28;20331;-86
2022/06/03 06:24:05;;;;;;;;;;;;;;;19.83;nan;99434.69;5019974;28;20263;-88
2022/06/03 06:26:46;;;;;;;;;;;;;;;19.95;nan;99433.38;5019825;28;19955;-87
2022/06/03 06:29:18;;;;;;;;;;;;;;;19.92;nan;99424.88;5025698;28;19939;-87
2022/06/03 06:31:52;;;;;;;;;;;;;;;19.84;nan;99420.38;5019617;28;19935;-87
2022/06/03 06:34:29;;;;;;;;;;;;;;;19.74;nan;99415.19;5004493;28;20341;-86
2022/06/03 06:37:08;;;;;;;;;;;;;;;19.68;nan;99423.81;5019292;28;19963;-87
2022/06/03 06:39:45;;;;;;;;;;;;;;;19.71;nan;99436.81;5028025;28;19931;-87
2022/06/03 06:42:29;;;;;;;;;;;;;;;19.76;nan;99445.16;5026349;28;20316;-87
2022/06/03 06:45:16;;;;;;;;;;;;;;;19.70;nan;99440.47;5021351;28;19954;-86
2022/06/03 06:47:52;;;;;;;;;;;;;;;19.54;nan;99443.88;4985555;28;19951;-87
2022/06/03 06:50:22;;;;;;;;;;;;;;;19.50;nan;99439.03;5029684;28;19942;-86
2022/06/03 06:53:00;;;;;;;;;;;;;;;19.62;nan;99433.25;5020909;28;19935;-87
2022/06/03 06:55:41;;;;;;;;;;;;;;;19.79;nan;99412.84;5022845;28;20455;-86
2022/06/03 06:58:21;;;;;;;;;;;;;;;20.03;nan;99414.75;5023745;28;19935;-86
2022/06/03 07:00:49;;;;;;;;;;;;;;;20.36;nan;99385.47;5016597;28;19958;-87
2022/06/03 07:03:21;;;;;;;;;;;;;;;20.63;nan;99371.00;5022029;28;20008;-86
2022/06/03 07:05:51;;;;;;;;;;;;;;;20.66;nan;99367.16;5017205;28;19954;-86
2022/06/03 07:08:21;;;;;;;;;;;;;;;20.50;nan;99352.78;5021482;28;19935;-86
2022/06/03 07:10:50;;;;;;;;;;;;;;;20.37;nan;99347.13;5022040;28;20314;-87
2022/06/03 07:13:30;;;;;;;;;;;;;;;20.38;nan;99331.94;5024883;28;19939;-86
2022/06/03 07:16:14;;;;;;;;;;;;;;;20.27;nan;99325.94;5020044;28;19937;-87
2022/06/03 07:25:21;;;;;;;;;;;;;;;20.00;nan;99305.78;4990061;28;20029;-87
2022/06/03 07:27:53;;;;;;;;;;;;;;;20.06;nan;99299.78;5020881;28;20046;-86
2022/06/03 07:30:20;;;;;;;;;;;;;;;20.10;nan;99282.44;5018280;28;20036;-87
2022/06/03 07:32:52;;;;;;;;;;;;;;;20.17;nan;99277.31;5024661;28;20411;-87
2022/06/03 07:35:30;;;;;;;;;;;;;;;20.25;nan;99279.97;5018269;28;20365;-87
2022/06/03 07:38:04;;;;;;;;;;;;;;;20.37;nan;99269.78;5005877;28;20076;-87
2022/06/03 07:40:34;;;;;;;;;;;;;;;20.49;nan;99284.41;5022494;28;20562;-87
2022/06/03 07:43:23;;;;;;;;;;;;;;;20.53;nan;99290.25;5022738;28;20170;-88
2022/06/03 07:45:53;;;;;;;;;;;;;;;20.63;nan;99287.41;5022913;28;20385;-87
2022/06/03 07:48:21;;;;;;;;;;;;;;;20.67;nan;99294.91;5001561;28;20290;-87
2022/06/03 07:50:58;;;;;;;;;;;;;;;20.75;nan;99292.22;5022862;28;19935;-87
2022/06/03 07:53:23;;;;;;;;;;;;;;;20.83;nan;99302.06;5020697;28;19937;-87
2022/06/03 07:55:54;;;;;;;;;;;;;;;20.94;nan;99301.69;5014526;28;19935;-88
2022/06/03 07:58:20;;;;;;;;;;;;;;;21.08;nan;99293.97;5021452;28;19977;-88
2022/06/03 08:00:46;;;;;;;;;;;;;;;21.20;nan;99300.59;5018527;28;20069;-88
2022/06/03 08:03:11;;;;;;;;;;;;;;;21.48;nan;99298.31;5016160;28;19939;-87
2022/06/03 08:05:36;;;;;;;;;;;;;;;21.92;nan;99291.53;5015306;28;19961;-87
2022/06/03 08:11:00;;;;;;;;;;;;;;;22.42;nan;99295.50;5023529;28;19943;-86
2022/06/03 08:13:43;;;;;;;;;;;;;;;22.58;nan;99294.50;5021891;28;19939;-87
2022/06/03 08:16:17;;;;;;;;;;;;;;;22.69;nan;99302.91;5018001;28;20343;-86
2022/06/03 08:18:43;;;;;;;;;;;;;;;22.71;nan;99297.38;5018229;28;20057;-87
2022/06/03 08:21:27;;;;;;;;;;;;;;;22.81;nan;99302.47;5021556;28;19935;-88
2022/06/03 08:23:54;;;;;;;;;;;;;;;23.05;nan;99302.22;5021236;28;20432;-87
2022/06/03 08:26:22;;;;;;;;;;;;;;;23.44;nan;99293.03;5015741;28;19959;-87
2022/06/03 08:28:50;;;;;;;;;;;;;;;23.72;nan;99276.25;5024656;28;20670;-87
2022/06/03 08:31:18;;;;;;;;;;;;;;;23.75;nan;99278.53;5016341;28;19967;-87
2022/06/03 08:33:51;;;;;;;;;;;;;;;23.91;nan;99280.13;5025653;28;20041;-86
2022/06/03 08:36:19;;;;;;;;;;;;;;;24.17;nan;99279.53;4997102;28;20553;-87
2022/06/03 08:38:52;;;;;;;;;;;;;;;24.45;nan;99279.59;5017434;28;19970;-87
2022/06/03 08:41:38;;;;;;;;;;;;;;;24.74;nan;99278.56;5003747;28;20107;-87
2022/06/03 08:44:13;;;;;;;;;;;;;;;25.11;nan;99280.00;5041283;28;19964;-87
2022/06/03 08:46:41;;;;;;;;;;;;;;;25.52;nan;99275.59;4978489;28;19980;-87
2022/06/03 08:49:10;;;;;;;;;;;;;;;25.49;nan;99276.00;5018038;28;19976;-87
2022/06/03 08:51:40;;;;;;;;;;;;;;;25.55;nan;99267.97;5015386;28;20415;-87
2022/06/03 08:54:26;;;;;;;;;;;;;;;25.56;nan;99268.78;5025203;28;20059;-87
2022/06/03 08:56:54;;;;;;;;;;;;;;;25.70;nan;99264.28;5017724;28;20437;-87
2022/06/03 08:59:25;;;;;;;;;;;;;;;25.59;nan;99269.22;5018659;28;20034;-88
2022/06/03 09:01:53;;;;;;;;;;;;;;;25.46;nan;99273.72;5018460;28;19968;-87
2022/06/03 09:04:21;;;;;;;;;;;;;;;25.30;nan;99272.22;5012938;28;20090;-87
2022/06/03 09:07:10;;;;;;;;;;;;;;;25.15;nan;99283.13;5019417;28;19971;-87
2022/06/03 09:09:46;;;;;;;;;;;;;;;24.90;nan;99305.09;5019508;28;20071;-86
2022/06/03 09:12:23;;;;;;;;;;;;;;;24.73;nan;99317.16;5025629;28;20422;-87
2022/06/03 09:14:49;;;;;;;;;;;;;;;24.54;nan;99340.16;5020502;28;19976;-87
2022/06/03 09:17:38;;;;;;;;;;;;;;;24.38;nan;99356.53;5022505;28;19972;-87
2022/06/03 09:20:11;;;;;;;;;;;;;;;24.15;nan;99392.44;5018435;28;20099;-87
2022/06/03 09:22:39;;;;;;;;;;;;;;;23.83;nan;99428.59;5026025;28;19971;-88
2022/06/03 09:25:06;;;;;;;;;;;;;;;23.58;nan;99457.56;5023396;28;20061;-88
2022/06/03 09:27:32;;;;;;;;;;;;;;;23.33;nan;99471.22;5017742;28;20403;-86
2022/06/03 09:30:02;;;;;;;;;;;;;;;23.11;nan;99459.53;5017167;28;20412;-86
2022/06/03 09:32:27;;;;;;;;;;;;;;;22.77;nan;99435.91;5016052;28;19974;-86
2022/06/03 09:34:56;;;;;;;;;;;;;;;22.42;nan;99407.91;5018472;28;20093;-86
2022/06/03 09:37:24;;;;;;;;;;;;;;;22.12;nan;99412.25;5020724;28;19975;-88
2022/06/03 09:39:51;;;;;;;;;;;;;;;21.90;nan;99419.22;5021613;28;19978;-87
2022/06/03 09:42:17;;;;;;;;;;;;;;;21.80;nan;99424.81;5013472;28;19979;-88
2022/06/03 09:44:44;;;;;;;;;;;;;;;21.74;nan;99425.47;4992889;28;19998;-87
2022/06/03 09:47:10;;;;;;;;;;;;;;;21.73;nan;99419.31;5027790;28;19975;-88
2022/06/03 09:49:36;;;;;;;;;;;;;;;21.67;nan;99421.84;5008891;28;19979;-87
2022/06/03 09:52:03;;;;;;;;;;;;;;;21.36;nan;99420.75;5008140;28;19975;-87
2022/06/03 09:54:34;;;;;;;;;;;;;;;21.11;nan;99430.66;5013831;28;19983;-87
2022/06/03 09:57:21;;;;;;;;;;;;;;;20.98;nan;99420.50;5011358;28;19972;-87
2022/06/03 09:59:52;;;;;;;;;;;;;;;20.95;nan;99417.31;5023136;28;19971;-86
2022/06/03 10:02:17;;;;;;;;;;;;;;;20.93;nan;99404.16;5012812;28;19972;-87
2022/06/03 10:04:42;;;;;;;;;;;;;;;20.85;nan;99409.50;5019281;28;19988;-86
2022/06/03 10:07:08;;;;;;;;;;;;;;;20.82;nan;99414.34;5016592;28;20582;-87
2022/06/03 10:17:54;;;;;;;;;;;;;;;20.93;nan;99390.00;5021919;28;20437;-86
2022/06/03 10:20:19;;;;;;;;;;;;;;;20.78;nan;99379.16;5023137;28;19972;-88
2022/06/03 10:22:45;;;;;;;;;;;;;;;20.85;nan;99377.47;5019824;28;19979;-86
2022/06/03 10:25:10;;;;;;;;;;;;;;;21.07;nan;99354.56;5020565;28;20544;-86
2022/06/03 10:27:36;;;;;;;;;;;;;;;21.49;nan;99344.56;5022435;28;20033;-87
2022/06/03 10:30:03;;;;;;;;;;;;;;;21.78;nan;99354.63;5013743;28;19968;-87
2022/06/03 10:32:28;;;;;;;;;;;;;;;21.99;nan;99352.16;5012188;28;19999;-87
2022/06/03 10:35:05;;;;;;;;;;;;;;;22.16;nan;99355.53;5017023;28;20220;-87
2022/06/03 10:37:30;;;;;;;;;;;;;;;22.37;nan;99338.03;5002035;28;20795;-86
2022/06/03 10:39:58;;;;;;;;;;;;;;;22.61;nan;99331.63;4993779;28;20059;-88
2022/06/03 10:42:24;;;;;;;;;;;;;;;22.92;nan;99324.25;5013286;28;19968;-86
2022/06/03 10:45:01;;;;;;;;;;;;;;;23.18;nan;99326.50;5017426;28;20589;-87
2022/06/03 10:47:33;;;;;;;;;;;;;;;23.39;nan;99330.28;5019529;28;20016;-86
2022/06/03 10:50:01;;;;;;;;;;;;;;;23.58;nan;99337.72;5017069;28;19968;-87
2022/06/03 11:01:09;;;;;;;;;;;;;;;23.30;nan;99342.09;5012705;28;19971;-86
2022/06/03 11:03:38;;;;;;;;;;;;;;;23.28;nan;99357.56;5016811;28;20069;-86
2022/06/03 11:06:10;;;;;;;;;;;;;;;23.21;nan;99359.31;5013550;28;20000;-85
2022/06/03 11:08:49;;;;;;;;;;;;;;;23.11;nan;99356.91;5018999;28;19972;-86
2022/06/03 11:11:28;;;;;;;;;;;;;;;22.98;nan;99362.91;5023076;28;20015;-86
2022/06/03 11:13:56;;;;;;;;;;;;;;;22.81;nan;99375.59;5023295;28;20460;-87
2022/06/03 11:16:22;;;;;;;;;;;;;;;22.70;nan;99381.38;5011091;28;20022;-86
2022/06/03 11:18:48;;;;;;;;;;;;;;;22.60;nan;99383.47;5015038;28;19971;-87
2022/06/03 11:21:23;;;;;;;;;;;;;;;22.51;nan;99380.88;5021217;28;20531;-87
2022/06/03 11:23:48;;;;;;;;;;;;;;;22.50;nan;99375.72;5017088;28;20118;-86
2022/06/03 11:26:13;;;;;;;;;;;;;;;22.51;nan;99369.34;5014440;28;19984;-86
2022/06/03 11:28:51;;;;;;;;;;;;;;;22.51;nan;99354.09;4994317;28;20147;-86
2022/06/03 11:31:25;;;;;;;;;;;;;;;22.53;nan;99344.06;4999705;28;19971;-86
2022/06/03 11:34:01;;;;;;;;;;;;;;;22.50;nan;99328.38;5010792;28;19979;-86
2022/06/03 11:36:38;;;;;;;;;;;;;;;22.57;nan;99309.72;5020479;28;19967;-86
2022/06/03 11:39:04;;;;;;;;;;;;;;;22.77;nan;99319.91;5011611;28;19983;-87
2022/06/03 11:41:37;;;;;;;;;;;;;;;22.97;nan;99315.69;5020855;28;19972;-86
2022/06/03 11:44:11;;;;;;;;;;;;;;;23.18;nan;99323.00;5015083;28;19988;-86
2022/06/03 11:46:37;;;;;;;;;;;;;;;23.33;nan;99315.78;5018072;28;19987;-85
2022/06/03 11:49:06;;;;;;;;;;;;;;;23.50;nan;99320.94;5021380;28;19985;-85
2022/06/03 11:51:33;;;;;;;;;;;;;;;23.70;nan;99318.47;5003534;28;20138;-87
2022/06/03 11:53:58;;;;;;;;;;;;;;;23.86;nan;99318.25;5017525;28;19971;-87
2022/06/03 11:56:25;;;;;;;;;;;;;;;23.97;nan;99317.75;5015733;28;20567;-86
2022/06/03 11:58:57;;;;;;;;;;;;;;;23.94;nan;99326.19;5003892;28;20349;-86
2022/06/03 12:01:22;;;;;;;;;;;;;;;23.94;nan;99328.84;5018341;28;20506;-86
2022/06/03 12:04:06;;;;;;;;;;;;;;;23.93;nan;99329.06;5016863;28;19972;-86
2022/06/03 12:06:36;;;;;;;;;;;;;;;24.05;nan;99341.75;5017136;28;20417;-87
2022/06/03 12:09:17;;;;;;;;;;;;;;;24.17;nan;99339.41;5025926;28;19975;-87
2022/06/03 12:14:32;;;;;;;;;;;;;;;24.45;nan;99334.09;5015950;28;20007;-86
2022/06/03 12:17:18;;;;;;;;;;;;;;;24.56;nan;99332.75;4996439;28;20436;-86
2022/06/03 12:19:44;;;;;;;;;;;;;;;24.58;nan;99336.06;5000267;28;19995;-86
2022/06/03 12:22:28;;;;;;;;;;;;;;;24.65;nan;99336.13;5015614;28;19982;-87
2022/06/03 12:24:54;;;;;;;;;;;;;;;24.71;nan;99340.72;5019541;28;20053;-86
2022/06/03 12:27:40;;;;;;;;;;;;;;;24.71;nan;99335.34;4997966;28;19980;-88
2022/06/03 12:30:11;;;;;;;;;;;;;;;24.70;nan;99333.69;4894491;28;19999;-87
2022/06/03 12:32:38;;;;;;;;;;;;;;;24.74;nan;99334.97;5021450;28;20022;-87
2022/06/03 12:35:23;;;;;;;;;;;;;;;24.74;nan;99340.34;5024059;28;19972;-87
2022/06/03 12:38:09;;;;;;;;;;;;;;;24.67;nan;99336.75;4973765;28;20365;-87
2022/06/03 12:40:35;;;;;;;;;;;;;;;24.63;nan;99338.19;5018436;28;19971;-87
2022/06/03 12:43:20;;;;;;;;;;;;;;;24.61;nan;99333.00;5024507;28;20349;-88
2022/06/03 12:45:55;;;;;;;;;;;;;;;24.62;nan;99336.50;5017067;28;20050;-86
2022/06/03 12:48:33;;;;;;;;;;;;;;;24.62;nan;99326.59;5022077;28;20496;-87
2022/06/03 12:51:18;;;;;;;;;;;;;;;24.66;nan;99321.69;5021797;28;19975;-87
2022/06/03 12:53:47;;;;;;;;;;;;;;;24.71;nan;99311.19;5005283;28;19975;-86
2022/06/03 12:56:23;;;;;;;;;;;;;;;24.81;nan;99319.69;5019971;28;20757;-87
2022/06/03 12:58:53;;;;;;;;;;;;;;;24.88;nan;99323.25;5023752;28;19971;-87
2022/06/03 13:01:31;;;;;;;;;;;;;;;24.99;nan;99326.44;5024451;28;19984;-86
2022/06/03 13:04:16;;;;;;;;;;;;;;;25.09;nan;99316.97;5022054;28;19972;-86
2022/06/03 13:07:00;;;;;;;;;;;;;;;25.27;nan;99329.91;4987517;28;19988;-87
2022/06/03 13:09:44;;;;;;;;;;;;;;;25.43;nan;99319.84;5021091;28;20033;-86
2022/06/03 13:12:35;;;;;;;;;;;;;;;25.53;nan;99320.31;5017807;28;19991;-87
2022/06/03 13:15:16;;;;;;;;;;;;;;;25.65;nan;99313.28;4988820;28;19983;-87
2022/06/03 13:17:59;;;;;;;;;;;;;;;25.79;nan;99317.69;5003592;28;19972;-87
2022/06/03 13:20:43;;;;;;;;;;;;;;;25.97;nan;99317.13;5027317;28;19968;-86
2022/06/03 13:23:27;;;;;;;;;;;;;;;26.09;nan;99322.75;5026326;28;19979;-87
2022/06/03 13:25:56;;;;;;;;;;;;;;;26.22;nan;99312.00;5021242;28;19988;-86
2022/06/03 13:28:24;;;;;;;;;;;;;;;26.24;nan;99307.22;5009053;28;19964;-87
2022/06/03 13:31:04;;;;;;;;;;;;;;;26.29;nan;99303.91;5037471;28;20372;-87
2022/06/03 13:33:31;;;;;;;;;;;;;;;26.40;nan;99310.53;5020278;28;20886;-86
2022/06/03 13:35:59;;;;;;;;;;;;;;;26.38;nan;99309.91;5014885;28;20571;-88
2022/06/03 13:38:37;;;;;;;;;;;;;;;26.45;nan;99294.59;5014996;28;19979;-87
2022/06/03 13:44:17;;;;;;;;;;;;;;;26.41;nan;99283.41;5008422;28;20033;-87
2022/06/03 13:46:46;;;;;;;;;;;;;;;26.40;nan;99279.03;5023116;28;20057;-86
2022/06/03 13:49:23;;;;;;;;;;;;;;;26.42;nan;99271.59;5023578;28;19975;-86
2022/06/03 13:51:53;;;;;;;;;;;;;;;26.42;nan;99268.06;5019960;28;20089;-87
2022/06/03 13:54:21;;;;;;;;;;;;;;;26.39;nan;99265.81;5022936;28;20003;-86
2022/06/03 13:56:58;;;;;;;;;;;;;;;26.44;nan;99266.84;4996148;28;19992;-86
2022/06/03 13:59:25;;;;;;;;;;;;;;;26.49;nan;99264.34;4997877;28;19972;-87
2022/06/03 14:01:52;;;;;;;;;;;;;;;26.55;nan;99273.47;4998184;28;20003;-86
2022/06/03 14:04:23;;;;;;;;;;;;;;;26.65;nan;99273.88;5002170;28;19976;-86
2022/06/03 14:07:09;;;;;;;;;;;;;;;26.77;nan;99267.84;4999918;28;19987;-86
2022/06/03 14:09:38;;;;;;;;;;;;;;;26.90;nan;99265.13;5001067;28;20256;-86
2022/06/03 14:12:06;;;;;;;;;;;;;;;27.02;nan;99260.72;5002781;28;20006;-84
2022/06/03 14:14:34;;;;;;;;;;;;;;;27.08;nan;99262.53;5003410;28;20319;-84
2022/06/03 14:17:10;;;;;;;;;;;;;;;27.14;nan;99267.09;4996593;28;20012;-86
2022/06/03 14:19:35;;;;;;;;;;;;;;;27.25;nan;99259.44;5000341;28;20700;-85
2022/06/03 14:22:08;;;;;;;;;;;;;;;27.29;nan;99255.25;4984471;28;20014;-84